Time;durP1;ratioP1;P1;durP2;ratioP2;P2;SDS_P1;SDS_P2;PMS_P1;PMS_P2;Temp;Humidity;BMP_temperature;BMP_pressure;BME280_temperature;BME280_humidity;BME280_pressure;Samples;Min_cycle;Max_cycle;Signal;HPM_P1;HPM_P2
2023/05/06 00:00:25;;;;;;;;;6.00;4.00;;;;;17.31;53.35;101175.16;5039307;28;45344;-64
2023/05/06 00:02:51;;;;;;;;;7.25;5.75;;;;;17.28;53.37;101171.75;5041827;28;45449;-64
2023/05/06 00:05:17;;;;;;;;;6.75;4.75;;;;;17.27;53.48;101167.34;5041209;28;45329;-64
2023/05/06 00:07:45;;;;;;;;;6.00;5.25;;;;;17.20;53.42;101159.59;5041306;28;46180;-64
2023/05/06 00:10:11;;;;;;;;;6.00;5.00;;;;;17.19;53.34;101165.84;5041167;28;45282;-64
2023/05/06 00:12:37;;;;;;;;;3.50;2.00;;;;;17.19;53.30;101165.84;5041190;28;45294;-64
2023/05/06 00:15:03;;;;;;;;;5.00;5.00;;;;;17.20;53.58;101167.56;5023415;28;45253;-64
2023/05/06 00:17:29;;;;;;;;;6.75;6.00;;;;;17.20;53.54;101169.38;5041103;28;45346;-64
2023/05/06 00:19:55;;;;;;;;;3.00;3.00;;;;;17.16;53.47;101162.44;5041076;28;45250;-64
2023/05/06 00:22:20;;;;;;;;;5.00;4.00;;;;;17.13;53.58;101163.41;5041405;28;45302;-64
2023/05/06 00:24:46;;;;;;;;;9.25;4.75;;;;;17.08;53.40;101152.09;5040996;28;45336;-64
2023/05/06 00:27:11;;;;;;;;;5.00;5.00;;;;;17.13;53.50;101159.88;5040882;28;46636;-64
2023/05/06 00:29:37;;;;;;;;;4.00;4.00;;;;;17.12;53.45;101156.34;5041055;28;45300;-62
2023/05/06 00:32:02;;;;;;;;;4.75;4.75;;;;;17.12;53.69;101163.44;5040856;28;45372;-62
2023/05/06 00:34:27;;;;;;;;;6.00;4.00;;;;;17.12;53.54;101164.31;5041120;28;45350;-62
2023/05/06 00:36:53;;;;;;;;;6.00;5.50;;;;;17.12;53.68;101160.78;5023085;28;47111;-64
2023/05/06 00:39:18;;;;;;;;;8.25;7.00;;;;;17.08;53.31;101154.75;5022854;28;48487;-63
2023/05/06 00:41:43;;;;;;;;;7.25;5.50;;;;;17.10;53.63;101154.69;5023128;28;45409;-64
2023/05/06 00:44:09;;;;;;;;;7.50;5.25;;;;;17.08;53.73;101148.53;5040949;28;45218;-63
2023/05/06 00:46:35;;;;;;;;;3.75;3.75;;;;;17.04;53.94;101150.44;5040646;28;45359;-64
2023/05/06 00:49:01;;;;;;;;;5.00;4.75;;;;;17.04;53.71;101145.13;5040723;28;45479;-63
2023/05/06 00:51:26;;;;;;;;;6.00;6.00;;;;;17.04;53.72;101161.94;5040859;28;45232;-63
2023/05/06 00:53:52;;;;;;;;;5.25;5.25;;;;;16.99;53.78;101145.31;5022928;28;45265;-63
2023/05/06 00:56:17;;;;;;;;;4.50;4.50;;;;;16.98;53.60;101143.56;5040288;28;46754;-64
2023/05/06 00:58:44;;;;;;;;;6.00;6.00;;;;;16.99;53.90;101144.41;5040703;28;45175;-64
2023/05/06 01:01:10;;;;;;;;;5.00;5.00;;;;;17.01;53.47;101158.53;5023006;28;45321;-63
2023/05/06 01:03:36;;;;;;;;;4.00;4.00;;;;;16.98;54.00;101153.31;5040525;28;45512;-64
2023/05/06 01:06:11;;;;;;;;;5.25;5.25;;;;;16.98;54.03;101153.31;5040495;28;45450;-64
2023/05/06 01:08:50;;;;;;;;;4.00;4.00;;;;;16.96;53.69;101152.50;5040049;28;45572;-63
2023/05/06 01:11:39;;;;;;;;;7.25;5.50;;;;;16.96;53.99;101160.47;5040363;28;45415;-63
2023/05/06 01:14:19;;;;;;;;;2.75;2.75;;;;;16.94;54.19;101149.03;5040534;28;45265;-63
2023/05/06 01:16:49;;;;;;;;;1.00;0.50;;;;;16.93;54.15;101144.63;5040186;28;45949;-63
2023/05/06 01:19:33;;;;;;;;;3.75;3.75;;;;;16.90;53.86;101142.91;5040276;28;45277;-63
2023/05/06 01:22:01;;;;;;;;;4.50;4.50;;;;;16.89;54.13;101143.84;5040490;28;45419;-64
2023/05/06 01:24:48;;;;;;;;;5.50;5.50;;;;;16.85;53.87;101140.41;5040060;28;45608;-64
2023/05/06 01:27:15;;;;;;;;;3.00;3.00;;;;;16.85;54.17;101137.75;5039915;28;45345;-63
2023/05/06 01:29:43;;;;;;;;;5.75;3.50;;;;;16.84;53.96;101141.34;5038357;28;45344;-64
2023/05/06 01:32:11;;;;;;;;;3.00;3.00;;;;;16.84;54.63;101144.00;5040507;28;45347;-63
2023/05/06 01:34:48;;;;;;;;;3.00;3.00;;;;;16.82;54.19;101137.88;5040052;28;45604;-64
2023/05/06 01:37:40;;;;;;;;;4.50;3.25;;;;;16.81;54.28;101144.09;5039972;28;45222;-63
2023/05/06 01:40:07;;;;;;;;;3.00;2.50;;;;;16.81;54.19;101138.78;5039961;28;45339;-64
2023/05/06 01:42:33;;;;;;;;;3.50;3.50;;;;;16.80;54.38;101139.69;5039035;28;45325;-64
2023/05/06 01:45:03;;;;;;;;;4.75;4.00;;;;;16.81;54.06;101137.94;5039886;28;45603;-64
2023/05/06 01:47:28;;;;;;;;;4.25;3.00;;;;;16.79;54.37;101135.34;5039807;28;45239;-65
2023/05/06 01:49:54;;;;;;;;;3.00;3.00;;;;;16.81;54.14;101132.63;5039895;28;45383;-64
2023/05/06 01:52:21;;;;;;;;;4.50;2.50;;;;;16.79;54.17;101132.69;5040105;28;45340;-63
2023/05/06 01:54:46;;;;;;;;;3.50;3.50;;;;;16.79;53.78;101123.84;5039829;28;45399;-64
2023/05/06 01:57:11;;;;;;;;;3.50;3.00;;;;;16.80;54.00;101131.75;5039386;28;48707;-64
2023/05/06 01:59:37;;;;;;;;;3.75;3.75;;;;;16.76;54.02;101121.31;5039758;28;45367;-63
2023/05/06 02:02:02;;;;;;;;;3.00;3.00;;;;;16.74;54.24;101116.91;5040232;28;45242;-64
2023/05/06 02:04:27;;;;;;;;;4.75;3.00;;;;;16.77;54.31;101118.59;5039787;28;45505;-64
2023/05/06 02:06:52;;;;;;;;;2.75;2.75;;;;;16.76;54.28;101116.84;5039074;28;51967;-63
2023/05/06 02:09:18;;;;;;;;;4.00;3.75;;;;;16.76;53.72;101119.50;5039858;28;45301;-64
2023/05/06 02:11:43;;;;;;;;;3.00;3.00;;;;;16.76;53.88;101122.16;5021716;28;46357;-63
2023/05/06 02:14:08;;;;;;;;;1.75;1.75;;;;;16.73;54.26;101116.97;5039734;28;45203;-63
2023/05/06 02:16:34;;;;;;;;;4.25;4.25;;;;;16.76;54.17;101129.25;5039443;28;45492;-63
2023/05/06 02:18:59;;;;;;;;;4.50;3.50;;;;;16.74;54.20;101129.28;5034323;28;45298;-64
2023/05/06 02:21:25;;;;;;;;;3.00;2.50;;;;;16.76;54.04;101129.25;5034450;28;45215;-63
2023/05/06 02:23:50;;;;;;;;;3.00;3.00;;;;;16.75;54.28;101136.34;5039661;28;45538;-65
2023/05/06 02:26:16;;;;;;;;;4.25;4.25;;;;;16.74;54.33;101129.28;5037513;28;48181;-63
2023/05/06 02:28:41;;;;;;;;;3.00;3.00;;;;;16.71;54.29;101132.06;5039731;28;45172;-63
2023/05/06 02:31:06;;;;;;;;;4.00;4.00;;;;;16.72;54.26;101125.84;5039560;28;45241;-63
2023/05/06 02:33:32;;;;;;;;;3.00;3.00;;;;;16.70;54.03;101123.25;5039538;28;45449;-63
2023/05/06 02:35:57;;;;;;;;;3.00;3.00;;;;;16.68;54.11;101118.91;5039371;28;45281;-63
2023/05/06 02:38:23;;;;;;;;;3.00;3.00;;;;;16.68;54.30;101119.78;5039198;28;49612;-63
2023/05/06 02:40:49;;;;;;;;;2.50;2.50;;;;;16.67;54.45;101130.44;5039554;28;45348;-63
2023/05/06 02:43:14;;;;;;;;;3.00;2.00;;;;;16.67;54.42;101127.78;5021187;28;45525;-64
2023/05/06 02:45:39;;;;;;;;;4.00;3.00;;;;;16.63;54.24;101120.81;5039076;28;46119;-63
2023/05/06 02:48:05;;;;;;;;;5.00;5.00;;;;;16.60;54.18;101121.78;5038935;28;52684;-64
2023/05/06 02:50:30;;;;;;;;;3.75;2.50;;;;;16.60;54.32;101120.94;5039343;28;45391;-63
2023/05/06 02:52:56;;;;;;;;;5.00;5.00;;;;;16.57;54.20;101121.91;5039295;28;45333;-64
2023/05/06 02:55:21;;;;;;;;;2.50;2.50;;;;;16.58;54.67;101121.00;5042029;28;45329;-63
2023/05/06 02:57:46;;;;;;;;;3.00;3.00;;;;;16.52;54.61;101107.94;5042486;28;45354;-64
2023/05/06 03:00:12;;;;;;;;;2.25;2.00;;;;;16.54;54.45;101111.38;5042273;28;48972;-63
2023/05/06 03:02:38;;;;;;;;;3.75;3.50;;;;;16.54;54.69;101106.97;5024588;28;45629;-64
2023/05/06 03:05:03;;;;;;;;;2.75;2.75;;;;;16.52;54.37;101108.78;5042322;28;45891;-63
2023/05/06 03:07:30;;;;;;;;;4.00;4.00;;;;;16.50;54.46;101100.03;5024293;28;45262;-61
2023/05/06 03:09:55;;;;;;;;;3.75;3.75;;;;;16.49;54.54;101100.94;5042447;28;45443;-64
2023/05/06 03:12:20;;;;;;;;;4.50;3.00;;;;;16.48;54.65;101101.88;5023719;28;45475;-63
2023/05/06 03:14:46;;;;;;;;;5.00;4.75;;;;;16.45;54.63;101096.66;5042197;28;46098;-63
2023/05/06 03:17:11;;;;;;;;;4.25;4.25;;;;;16.47;54.38;101105.44;5042163;28;45261;-63
2023/05/06 03:19:36;;;;;;;;;2.75;2.00;;;;;16.48;54.52;101103.66;5042352;28;45252;-64
2023/05/06 03:22:02;;;;;;;;;4.00;3.50;;;;;16.47;54.47;101102.78;5042241;28;45288;-64
2023/05/06 03:24:27;;;;;;;;;3.25;2.75;;;;;16.47;54.49;101100.13;5040724;28;46888;-63
2023/05/06 03:26:52;;;;;;;;;4.75;4.00;;;;;16.45;54.72;101104.59;5040452;28;45215;-63
2023/05/06 03:29:18;;;;;;;;;4.25;4.25;;;;;16.45;54.45;101101.09;5041052;28;45458;-63
2023/05/06 03:31:43;;;;;;;;;2.50;1.00;;;;;16.45;54.34;101096.66;5042077;28;45399;-63
2023/05/06 03:34:08;;;;;;;;;4.75;3.50;;;;;16.43;54.78;101095.84;5042164;28;46054;-63
2023/05/06 03:36:34;;;;;;;;;3.00;3.00;;;;;16.46;54.80;101105.50;5041717;28;45233;-64
2023/05/06 03:38:59;;;;;;;;;5.25;4.00;;;;;16.42;54.63;101102.06;5042030;28;45428;-63
2023/05/06 03:41:24;;;;;;;;;5.00;3.00;;;;;16.42;54.75;101097.63;5041570;28;45662;-64
2023/05/06 03:43:51;;;;;;;;;3.50;3.00;;;;;16.41;54.90;101095.91;5040439;28;47433;-63
2023/05/06 03:46:16;;;;;;;;;4.00;4.00;;;;;16.40;54.67;101101.25;5041597;28;45403;-64
2023/05/06 03:48:41;;;;;;;;;6.25;6.25;;;;;16.37;54.80;101093.41;5041891;28;45224;-63
2023/05/06 03:51:07;;;;;;;;;7.25;3.75;;;;;16.38;54.57;101096.00;5041764;28;45258;-63
2023/05/06 03:53:32;;;;;;;;;4.00;4.00;;;;;16.37;54.78;101088.94;5041690;28;45245;-63
2023/05/06 03:55:58;;;;;;;;;5.00;5.00;;;;;16.36;54.52;101091.66;5023319;28;45867;-64
2023/05/06 03:58:23;;;;;;;;;3.00;3.00;;;;;16.32;54.64;101087.38;5041781;28;45556;-63
2023/05/06 04:00:49;;;;;;;;;2.75;2.75;;;;;16.35;54.71;101096.09;5023470;28;45273;-63
2023/05/06 04:03:14;;;;;;;;;5.75;4.25;;;;;16.33;54.92;101086.47;5023464;28;47739;-63
2023/05/06 04:05:40;;;;;;;;;4.00;4.00;;;;;16.38;54.74;101101.28;5022993;28;45236;-63
2023/05/06 04:08:05;;;;;;;;;3.00;3.00;;;;;16.39;54.85;101104.84;5041540;28;45308;-63
2023/05/06 04:10:30;;;;;;;;;4.00;4.00;;;;;16.40;54.69;101106.53;5040767;28;57736;-63
2023/05/06 04:12:55;;;;;;;;;2.00;0.75;;;;;16.33;54.96;101094.44;5041260;28;45318;-63
2023/05/06 04:15:22;;;;;;;;;4.00;3.00;;;;;16.38;54.84;101090.69;5041257;28;45250;-63
2023/05/06 04:17:47;;;;;;;;;3.50;3.50;;;;;16.38;55.00;101101.28;5041582;28;45168;-63
2023/05/06 04:20:13;;;;;;;;;4.75;4.75;;;;;16.38;54.71;101088.03;5035601;28;45467;-64
2023/05/06 04:22:38;;;;;;;;;6.25;6.25;;;;;16.43;54.89;101090.53;5031014;28;46978;-64
2023/05/06 04:25:04;;;;;;;;;4.00;4.00;;;;;16.45;54.69;101090.47;5040962;28;45543;-64
2023/05/06 04:27:30;;;;;;;;;5.25;4.00;;;;;16.43;54.66;101093.19;5041218;28;45293;-64
2023/05/06 04:29:56;;;;;;;;;5.00;5.00;;;;;16.46;54.81;101092.22;5041091;28;45327;-63
2023/05/06 04:32:24;;;;;;;;;5.00;5.00;;;;;16.45;54.60;101099.28;5039669;28;45962;-64
2023/05/06 04:34:51;;;;;;;;;3.50;3.50;;;;;16.41;54.60;101089.72;5041100;28;45447;-63
2023/05/06 04:37:20;;;;;;;;;4.00;4.00;;;;;16.42;54.66;101086.16;5041100;28;45394;-64
2023/05/06 04:39:48;;;;;;;;;2.00;2.00;;;;;16.40;54.82;101083.56;5040820;28;45353;-63
2023/05/06 04:42:15;;;;;;;;;5.50;5.50;;;;;16.40;54.76;101083.56;5040605;28;45345;-64
2023/05/06 04:44:41;;;;;;;;;4.00;4.00;;;;;16.42;55.10;101076.41;5040814;28;45189;-63
2023/05/06 04:47:07;;;;;;;;;5.00;3.50;;;;;16.40;55.01;101077.38;5040841;28;45258;-63
2023/05/06 04:49:32;;;;;;;;;6.50;5.00;;;;;16.43;54.92;101077.28;5040647;28;45783;-64
2023/05/06 04:51:58;;;;;;;;;5.00;5.00;;;;;16.42;54.83;101080.84;5040693;28;46270;-64
2023/05/06 04:54:23;;;;;;;;;5.00;5.00;;;;;16.41;55.16;101079.09;5040505;28;45251;-63
2023/05/06 04:56:50;;;;;;;;;6.00;6.00;;;;;16.42;54.83;101079.03;5040515;28;45423;-63
2023/05/06 04:59:15;;;;;;;;;5.50;5.00;;;;;16.44;54.96;101083.44;5039072;28;45393;-63
2023/05/06 05:01:40;;;;;;;;;5.25;5.00;;;;;16.41;54.98;101072.03;5040351;28;46653;-64
2023/05/06 05:04:06;;;;;;;;;5.25;5.25;;;;;16.43;54.98;101079.94;5040479;28;45472;-63
2023/05/06 05:06:31;;;;;;;;;6.75;6.75;;;;;16.41;55.04;101080.00;5022712;28;45498;-64
2023/05/06 05:08:57;;;;;;;;;6.00;5.75;;;;;16.43;54.95;101085.25;4999212;28;45591;-64
2023/05/06 05:11:23;;;;;;;;;7.50;7.50;;;;;16.41;54.68;101085.28;5000438;28;46243;-64
2023/05/06 05:13:48;;;;;;;;;6.50;5.00;;;;;16.42;55.06;101088.81;4999302;28;46215;-63
2023/05/06 05:16:14;;;;;;;;;6.00;5.75;;;;;16.39;55.14;101086.28;4999363;28;45260;-64
2023/05/06 05:18:39;;;;;;;;;8.25;6.25;;;;;16.41;54.81;101097.66;4998814;28;54199;-64
2023/05/06 05:21:04;;;;;;;;;7.00;5.75;;;;;16.39;54.94;101097.72;5000442;28;45398;-64
2023/05/06 05:23:30;;;;;;;;;7.25;6.00;;;;;16.40;54.91;101110.06;4999282;28;45338;-64
2023/05/06 05:25:56;;;;;;;;;7.00;6.00;;;;;16.39;55.04;101103.03;4998907;28;45267;-64
2023/05/06 05:28:21;;;;;;;;;6.25;5.00;;;;;16.40;54.96;101106.53;5000267;28;45491;-64
2023/05/06 05:30:46;;;;;;;;;5.75;5.75;;;;;16.40;55.17;101111.84;5015590;28;45565;-64
2023/05/06 05:33:12;;;;;;;;;4.75;4.75;;;;;16.39;55.26;101104.84;5000297;28;45431;-64
2023/05/06 05:35:37;;;;;;;;;6.75;6.00;;;;;16.36;54.99;101108.44;5000567;28;45643;-63
2023/05/06 05:38:03;;;;;;;;;7.75;6.25;;;;;16.38;55.15;101113.69;5015534;28;45513;-64
2023/05/06 05:40:28;;;;;;;;;7.00;6.00;;;;;16.31;55.24;101104.19;5015293;28;45503;-64
2023/05/06 05:42:54;;;;;;;;;9.25;7.00;;;;;16.38;55.14;101119.84;5000053;28;45206;-63
2023/05/06 05:45:20;;;;;;;;;7.00;7.00;;;;;16.38;55.17;101119.00;4998634;28;45517;-64
2023/05/06 05:47:45;;;;;;;;;7.25;6.25;;;;;16.36;55.13;101124.38;5000128;28;45539;-64
2023/05/06 05:50:10;;;;;;;;;9.25;7.25;;;;;16.38;55.20;101113.69;4999099;28;46173;-64
2023/05/06 05:52:36;;;;;;;;;6.75;5.25;;;;;16.39;55.14;101118.09;4999968;28;45292;-64
2023/05/06 05:55:01;;;;;;;;;6.75;6.50;;;;;16.39;54.91;101115.44;5015503;28;45641;-64
2023/05/06 05:57:26;;;;;;;;;8.00;6.75;;;;;16.40;55.13;101109.19;4999842;28;45539;-64
2023/05/06 05:59:52;;;;;;;;;3.75;3.75;;;;;16.40;55.46;101111.84;4999945;28;51418;-63
2023/05/06 06:02:17;;;;;;;;;8.75;7.25;;;;;16.41;55.39;101117.13;5000017;28;45274;-63
2023/05/06 06:04:43;;;;;;;;;10.25;9.25;;;;;16.36;55.10;101108.44;5015480;28;45325;-63
2023/05/06 06:07:08;;;;;;;;;8.75;6.00;;;;;16.44;55.08;101124.13;5002570;28;45580;-64
2023/05/06 06:09:34;;;;;;;;;7.50;7.50;;;;;16.40;55.21;101114.50;5019616;28;46165;-63
2023/05/06 06:11:59;;;;;;;;;10.50;6.00;;;;;16.47;55.14;101123.16;5019347;28;45251;-63
2023/05/06 06:14:24;;;;;;;;;6.75;6.75;;;;;16.48;55.62;101130.19;5018566;28;45299;-63
2023/05/06 06:16:50;;;;;;;;;16.25;11.00;;;;;16.48;55.53;101124.88;5019464;28;45344;-63
2023/05/06 06:19:15;;;;;;;;;9.00;9.00;;;;;16.51;55.44;101130.94;5013439;28;45395;-63
2023/05/06 06:21:40;;;;;;;;;10.25;9.00;;;;;16.53;55.46;101129.09;5001606;28;45611;-63
2023/05/06 06:24:06;;;;;;;;;6.00;6.00;;;;;16.55;55.65;101135.25;5019604;28;45164;-63
2023/05/06 06:26:31;;;;;;;;;10.00;8.25;;;;;16.58;55.22;101137.78;5017662;28;45626;-63
2023/05/06 06:28:56;;;;;;;;;8.50;8.00;;;;;16.60;55.52;101137.72;5020663;28;45289;-63
2023/05/06 06:31:22;;;;;;;;;7.00;7.00;;;;;16.62;55.39;101137.69;5022958;28;45206;-63
2023/05/06 06:33:47;;;;;;;;;11.00;8.75;;;;;16.62;55.49;101130.59;5023099;28;45220;-63
2023/05/06 06:36:12;;;;;;;;;7.75;6.50;;;;;16.62;55.30;101132.38;5021832;28;45725;-63
2023/05/06 06:38:39;;;;;;;;;8.00;7.75;;;;;16.67;55.49;101133.94;5021493;28;46907;-63
2023/05/06 06:41:04;;;;;;;;;11.50;8.75;;;;;16.69;55.59;101131.25;5021049;28;46153;-63
2023/05/06 06:43:29;;;;;;;;;10.50;9.25;;;;;16.68;55.74;101127.72;5022859;28;45325;-63
2023/05/06 06:45:55;;;;;;;;;7.00;7.00;;;;;16.73;55.66;101130.25;5022266;28;51768;-63
2023/05/06 06:48:20;;;;;;;;;8.00;7.75;;;;;16.73;55.62;101123.13;5022620;28;45365;-63
2023/05/06 06:50:46;;;;;;;;;10.00;7.50;;;;;16.74;55.81;101129.28;5022566;28;45246;-63
2023/05/06 06:53:11;;;;;;;;;8.00;7.00;;;;;16.76;55.68;101126.63;5022658;28;45325;-63
2023/05/06 06:55:36;;;;;;;;;7.50;6.75;;;;;16.81;55.59;101132.63;5022371;28;45330;-63
2023/05/06 06:58:02;;;;;;;;;6.75;6.75;;;;;16.82;55.87;101121.94;5022102;28;48321;-63
2023/05/06 07:00:27;;;;;;;;;6.50;5.25;;;;;16.86;55.47;101133.34;5006438;28;45388;-63
2023/05/06 07:02:53;;;;;;;;;8.25;6.25;;;;;16.88;55.39;101137.66;5012388;28;45553;-63
2023/05/06 07:05:18;;;;;;;;;12.25;10.50;;;;;16.92;55.45;101138.47;5021642;28;45476;-63
2023/05/06 07:07:44;;;;;;;;;8.25;7.25;;;;;16.95;55.72;101142.81;5031353;28;45895;-63
2023/05/06 07:10:09;;;;;;;;;8.75;7.00;;;;;16.99;55.41;101141.75;5042151;28;45308;-63
2023/05/06 07:12:35;;;;;;;;;9.50;9.50;;;;;16.97;55.71;101140.97;5024294;28;45346;-63
2023/05/06 07:15:00;;;;;;;;;9.75;8.00;;;;;17.03;55.76;101140.72;5042150;28;45239;-64
2023/05/06 07:17:25;;;;;;;;;7.75;6.75;;;;;17.04;55.95;101138.06;5023717;28;47140;-63
2023/05/06 07:19:51;;;;;;;;;7.75;7.00;;;;;17.09;55.92;101139.66;5039617;28;45248;-64
2023/05/06 07:22:16;;;;;;;;;8.50;6.75;;;;;17.11;55.87;101140.50;5042412;28;45303;-64
2023/05/06 07:24:41;;;;;;;;;7.50;7.50;;;;;17.13;55.89;101139.50;5040582;28;45429;-63
2023/05/06 07:27:07;;;;;;;;;7.75;7.00;;;;;17.17;55.97;101149.09;5041771;28;45248;-64
2023/05/06 07:29:35;;;;;;;;;6.25;6.25;;;;;17.19;55.87;101154.34;5042074;28;45227;-63
2023/05/06 07:32:00;;;;;;;;;7.00;5.75;;;;;17.20;55.78;101151.63;5024064;28;45419;-64
2023/05/06 07:34:26;;;;;;;;;6.00;5.25;;;;;17.23;55.90;101145.34;5023986;28;45454;-63
2023/05/06 07:36:51;;;;;;;;;8.00;6.50;;;;;17.27;55.83;101152.31;5041687;28;50264;-63
2023/05/06 07:39:16;;;;;;;;;6.25;6.00;;;;;17.31;55.78;101153.06;5041658;28;45428;-61
2023/05/06 07:41:42;;;;;;;;;8.25;7.00;;;;;17.33;56.13;101145.88;5040728;28;45459;-62
2023/05/06 07:44:07;;;;;;;;;8.50;7.25;;;;;17.37;56.05;101145.72;5041724;28;45376;-62
2023/05/06 07:46:32;;;;;;;;;6.50;6.50;;;;;17.39;55.86;101153.63;5040286;28;48099;-62
2023/05/06 07:48:58;;;;;;;;;9.75;7.25;;;;;17.44;56.09;101156.13;5041569;28;45265;-63
2023/05/06 07:51:23;;;;;;;;;14.25;10.75;;;;;17.43;56.05;101144.63;5023826;28;45395;-63
2023/05/06 07:53:48;;;;;;;;;9.00;6.00;;;;;17.47;56.17;101140.94;5041650;28;45421;-62
2023/05/06 07:56:14;;;;;;;;;9.25;6.25;;;;;17.49;56.00;101152.38;5023278;28;46802;-63
2023/05/06 07:58:39;;;;;;;;;7.00;6.00;;;;;17.51;56.10;101147.88;5040156;28;45270;-62
2023/05/06 08:01:05;;;;;;;;;7.00;5.25;;;;;17.59;56.15;101160.88;5041791;28;45483;-63
2023/05/06 08:03:31;;;;;;;;;8.00;6.00;;;;;17.60;55.91;101157.31;5040057;28;45367;-62
2023/05/06 08:05:57;;;;;;;;;7.50;5.00;;;;;17.63;56.01;101153.66;5040109;28;46151;-62
2023/05/06 08:08:26;;;;;;;;;6.00;6.00;;;;;17.65;55.90;101152.69;5041048;28;45220;-62
2023/05/06 08:10:52;;;;;;;;;7.25;4.75;;;;;17.70;56.14;101163.16;5041240;28;45394;-62
2023/05/06 08:13:17;;;;;;;;;11.75;8.50;;;;;17.71;56.05;101159.56;5023352;28;45401;-62
2023/05/06 08:15:43;;;;;;;;;10.75;8.50;;;;;17.77;56.05;101166.44;5023107;28;52597;-62
2023/05/06 08:18:08;;;;;;;;;9.00;8.50;;;;;17.78;56.19;101161.06;5041210;28;45358;-62
2023/05/06 08:20:33;;;;;;;;;8.25;7.00;;;;;17.83;56.19;101164.41;5041354;28;45471;-63
2023/05/06 08:22:59;;;;;;;;;8.50;8.50;;;;;17.86;56.20;101166.97;5041134;28;45533;-63
2023/05/06 08:25:25;;;;;;;;;7.25;7.25;;;;;17.89;56.09;101157.16;5041069;28;45373;-63
2023/05/06 08:27:50;;;;;;;;;5.75;5.75;;;;;17.93;56.15;101164.91;5022947;28;45319;-63
2023/05/06 08:30:16;;;;;;;;;7.75;7.00;;;;;17.97;55.94;101166.56;5041217;28;45501;-63
2023/05/06 08:32:41;;;;;;;;;5.25;5.25;;;;;18.02;56.04;101155.75;5041015;28;45218;-63
2023/05/06 08:35:07;;;;;;;;;8.00;7.00;;;;;18.03;56.05;101155.69;5041224;28;45277;-63
2023/05/06 08:37:32;;;;;;;;;7.50;7.50;;;;;18.07;55.89;101161.75;5040878;28;45271;-63
2023/05/06 08:39:58;;;;;;;;;8.00;5.75;;;;;18.10;55.82;101158.13;5041117;28;45263;-62
2023/05/06 08:42:24;;;;;;;;;7.00;7.00;;;;;18.16;56.18;101165.84;5040610;28;45156;-62
2023/05/06 08:44:51;;;;;;;;;7.00;6.00;;;;;18.18;56.14;101169.31;5040848;28;45396;-63
2023/05/06 08:47:18;;;;;;;;;4.50;4.50;;;;;18.22;56.11;101165.63;5040385;28;45423;-63
2023/05/06 08:49:44;;;;;;;;;5.25;5.00;;;;;18.26;55.73;101163.69;5040862;28;45317;-63
2023/05/06 08:52:10;;;;;;;;;7.25;6.50;;;;;18.28;55.70;101164.53;5022368;28;45682;-63
2023/05/06 08:54:37;;;;;;;;;9.00;6.00;;;;;18.31;55.57;101159.06;5040666;28;45511;-62
2023/05/06 08:57:07;;;;;;;;;9.75;6.25;;;;;18.35;55.75;101160.66;5040147;28;45365;-63
2023/05/06 08:59:33;;;;;;;;;6.50;6.50;;;;;18.39;56.26;101156.09;5023345;28;45484;-63
2023/05/06 09:02:00;;;;;;;;;6.00;6.00;;;;;18.44;55.90;101154.09;5040411;28;45320;-63
2023/05/06 09:04:26;;;;;;;;;6.25;5.75;;;;;18.47;56.12;101161.97;5022687;28;47218;-63
2023/05/06 09:06:51;;;;;;;;;8.00;7.00;;;;;18.49;55.77;101155.66;5038772;28;45344;-63
2023/05/06 09:09:17;;;;;;;;;5.75;5.50;;;;;18.55;55.72;101159.84;5040547;28;45244;-63
2023/05/06 09:11:42;;;;;;;;;4.25;4.25;;;;;18.58;55.90;101153.53;5040301;28;45290;-63
2023/05/06 09:14:15;;;;;;;;;11.00;7.50;;;;;18.62;55.63;101164.00;5040239;28;50441;-63
2023/05/06 09:16:43;;;;;;;;;5.00;5.00;;;;;18.66;55.81;101159.44;5039002;28;45253;-63
2023/05/06 09:19:08;;;;;;;;;5.25;5.25;;;;;18.71;55.81;101161.91;5040419;28;45246;-63
2023/05/06 09:21:40;;;;;;;;;5.00;5.00;;;;;18.75;55.50;101163.50;5040232;28;45230;-63
2023/05/06 09:24:07;;;;;;;;;5.75;5.00;;;;;18.72;55.57;101145.88;5040126;28;46276;-63
2023/05/06 09:26:35;;;;;;;;;3.00;3.00;;;;;18.81;55.61;101163.25;5039692;28;45298;-63
2023/05/06 09:29:01;;;;;;;;;5.50;4.25;;;;;18.83;55.83;101161.41;5040350;28;45293;-63
2023/05/06 09:31:27;;;;;;;;;5.00;5.00;;;;;18.84;55.64;101155.13;5040157;28;45321;-63
2023/05/06 09:33:54;;;;;;;;;4.75;4.00;;;;;18.87;55.76;101156.78;5039966;28;45618;-63
2023/05/06 09:36:20;;;;;;;;;1.75;1.75;;;;;18.89;55.01;101150.47;5040063;28;45250;-63
2023/05/06 09:38:46;;;;;;;;;4.25;4.25;;;;;18.91;55.04;101155.78;5022078;28;45366;-63
2023/05/06 09:41:12;;;;;;;;;4.00;3.00;;;;;18.92;54.94;101153.03;5039566;28;45487;-63
2023/05/06 09:43:43;;;;;;;;;6.25;3.25;;;;;18.93;55.22;101140.56;5039919;28;45185;-63
2023/05/06 09:46:10;;;;;;;;;3.00;3.00;;;;;18.98;55.41;101130.59;5039731;28;45322;-63
2023/05/06 09:48:35;;;;;;;;;3.25;2.25;;;;;19.04;54.94;101142.78;5039873;28;45380;-63
2023/05/06 09:51:02;;;;;;;;;4.00;2.50;;;;;19.06;54.92;101138.28;5039840;28;45492;-63
2023/05/06 09:53:29;;;;;;;;;3.00;3.00;;;;;19.07;54.88;101124.88;5022034;28;45308;-63
2023/05/06 09:55:57;;;;;;;;;3.00;3.00;;;;;19.09;55.20;101130.13;5039319;28;45364;-63
2023/05/06 09:58:22;;;;;;;;;3.50;3.00;;;;;19.13;54.70;101129.94;5039809;28;45349;-63
2023/05/06 10:00:51;;;;;;;;;2.75;2.00;;;;;19.16;54.68;101128.94;5038305;28;45348;-63
2023/05/06 10:03:18;;;;;;;;;4.00;3.75;;;;;19.16;54.42;101116.47;5021856;28;47201;-64
2023/05/06 10:05:45;;;;;;;;;2.25;2.00;;;;;19.23;54.77;101129.53;5025092;28;45356;-63
2023/05/06 10:08:14;;;;;;;;;2.00;2.00;;;;;19.22;54.31;101117.13;5043195;28;45283;-63
2023/05/06 10:10:40;;;;;;;;;3.25;2.00;;;;;19.30;54.66;101128.31;5025042;28;45647;-63
2023/05/06 10:13:07;;;;;;;;;6.75;3.50;;;;;19.32;54.47;101123.81;5025106;28;47256;-63
2023/05/06 10:15:33;;;;;;;;;4.00;3.00;;;;;19.36;54.31;101121.84;5041907;28;45395;-63
2023/05/06 10:18:03;;;;;;;;;9.00;9.00;;;;;19.40;54.11;101118.97;5043075;28;45225;-50
2023/05/06 10:20:30;;;;;;;;;6.75;5.00;;;;;19.41;54.12;101112.72;5042847;28;45404;-62
2023/05/06 10:23:34;;;;;;;;;5.00;4.75;;;;;19.47;53.94;101116.88;5042940;28;45210;-63
2023/05/06 10:26:06;;;;;;;;;3.50;3.00;;;;;19.51;54.29;101110.50;5024804;28;45297;-64
2023/05/06 10:28:38;;;;;;;;;1.00;1.00;;;;;19.58;53.91;101114.59;5043037;28;45313;-63
2023/05/06 10:31:03;;;;;;;;;3.00;3.00;;;;;19.62;54.19;101118.88;5042927;28;45373;-63
2023/05/06 10:33:30;;;;;;;;;4.50;4.50;;;;;19.66;53.99;101108.94;5041575;28;47213;-64
2023/05/06 10:36:19;;;;;;;;;2.75;2.00;;;;;19.73;53.83;101110.34;5024940;28;45384;-64
2023/05/06 10:38:49;;;;;;;;;3.75;2.25;;;;;19.77;53.55;101117.31;5025234;28;45335;-64
2023/05/06 10:41:15;;;;;;;;;5.00;2.00;;;;;19.86;53.64;101110.69;5042332;28;45339;-64
2023/05/06 10:43:42;;;;;;;;;4.50;3.00;;;;;19.92;53.79;101109.53;5042760;28;45353;-64
2023/05/06 10:46:13;;;;;;;;;4.00;4.00;;;;;19.96;54.06;101100.44;5042467;28;45333;-64
2023/05/06 10:48:59;;;;;;;;;4.25;3.00;;;;;20.05;53.50;101109.78;5024875;28;45258;-64
2023/05/06 10:51:27;;;;;;;;;4.75;2.75;;;;;20.10;53.95;101095.31;5010646;28;45479;-64
2023/05/06 10:54:01;;;;;;;;;3.50;3.50;;;;;20.21;53.92;101099.25;5041034;28;48240;-63
2023/05/06 10:56:37;;;;;;;;;2.00;2.00;;;;;20.22;53.83;101085.84;5024112;28;45418;-64
2023/05/06 10:59:07;;;;;;;;;5.00;3.00;;;;;20.30;53.82;101089.00;5042248;28;45327;-63
2023/05/06 11:01:40;;;;;;;;;3.75;2.50;;;;;20.37;53.40;101092.22;5042411;28;45403;-64
2023/05/06 11:04:08;;;;;;;;;2.25;2.00;;;;;20.43;53.91;101091.06;5042094;28;45241;-63
2023/05/06 11:07:07;;;;;;;;;4.00;4.00;;;;;20.49;53.57;101082.75;5040929;28;45330;-63
2023/05/06 11:09:32;;;;;;;;;1.75;1.75;;;;;20.55;53.36;101084.22;5015071;28;45407;-63
2023/05/06 11:12:02;;;;;;;;;5.00;4.25;;;;;20.60;53.77;101082.19;5041873;28;45463;-63
2023/05/06 11:14:36;;;;;;;;;5.00;2.50;;;;;20.66;53.45;101081.88;5040439;28;47082;-63
2023/05/06 11:17:27;;;;;;;;;6.50;2.75;;;;;20.74;53.56;101077.03;5042175;28;45301;-64
2023/05/06 11:20:23;;;;;;;;;3.75;3.75;;;;;20.83;52.96;101074.81;5042063;28;45378;-64
2023/05/06 11:22:48;;;;;;;;;4.50;2.75;;;;;20.90;53.19;101071.75;5042002;28;45266;-64